sensor_id;sensor_type;location;lat;lon;timestamp;temperature;humidity
9389;DHT22;4734;52.778;6.798;2023-10-13T00:01:40;15.80;99.90
9389;DHT22;4734;52.778;6.798;2023-10-13T00:04:26;15.80;99.90
9389;DHT22;4734;52.778;6.798;2023-10-13T00:07:11;15.90;99.90
9389;DHT22;4734;52.778;6.798;2023-10-13T00:09:57;15.90;99.90
9389;DHT22;4734;52.778;6.798;2023-10-13T00:12:43;15.90;99.90
9389;DHT22;4734;52.778;6.798;2023-10-13T00:15:38;16.00;99.90
9389;DHT22;4734;52.778;6.798;2023-10-13T00:18:30;16.00;99.90
9389;DHT22;4734;52.778;6.798;2023-10-13T00:21:17;16.00;99.90
9389;DHT22;4734;52.778;6.798;2023-10-13T00:24:15;16.00;99.90
9389;DHT22;4734;52.778;6.798;2023-10-13T00:27:07;16.10;99.90
9389;DHT22;4734;52.778;6.798;2023-10-13T00:29:55;16.10;99.90
9389;DHT22;4734;52.778;6.798;2023-10-13T00:32:57;16.10;99.90
9389;DHT22;4734;52.778;6.798;2023-10-13T00:35:43;16.10;99.90
9389;DHT22;4734;52.778;6.798;2023-10-13T00:38:31;16.10;99.90
9389;DHT22;4734;52.778;6.798;2023-10-13T00:41:17;16.20;99.90
9389;DHT22;4734;52.778;6.798;2023-10-13T00:44:18;16.20;99.90
9389;DHT22;4734;52.778;6.798;2023-10-13T00:47:13;16.20;99.90
9389;DHT22;4734;52.778;6.798;2023-10-13T00:50:18;16.20;99.90
9389;DHT22;4734;52.778;6.798;2023-10-13T00:53:04;16.20;99.90
9389;DHT22;4734;52.778;6.798;2023-10-13T00:55:50;16.20;99.90
9389;DHT22;4734;52.778;6.798;2023-10-13T00:58:35;16.20;99.90
9389;DHT22;4734;52.778;6.798;2023-10-13T01:01:23;16.30;99.90
9389;DHT22;4734;52.778;6.798;2023-10-13T01:04:13;16.30;99.90
9389;DHT22;4734;52.778;6.798;2023-10-13T01:07:00;16.30;99.90
9389;DHT22;4734;52.778;6.798;2023-10-13T01:09:45;16.30;99.90
9389;DHT22;4734;52.778;6.798;2023-10-13T01:12:31;16.30;99.90
9389;DHT22;4734;52.778;6.798;2023-10-13T01:15:16;16.30;99.90
9389;DHT22;4734;52.778;6.798;2023-10-13T01:18:08;16.30;99.90
9389;DHT22;4734;52.778;6.798;2023-10-13T01:20:55;16.30;99.90
9389;DHT22;4734;52.778;6.798;2023-10-13T01:23:44;16.30;99.90
9389;DHT22;4734;52.778;6.798;2023-10-13T01:26:30;16.40;99.90
9389;DHT22;4734;52.778;6.798;2023-10-13T01:29:19;16.40;99.90
9389;DHT22;4734;52.778;6.798;2023-10-13T01:32:10;16.40;99.90
9389;DHT22;4734;52.778;6.798;2023-10-13T01:34:56;16.40;99.90
9389;DHT22;4734;52.778;6.798;2023-10-13T01:37:48;16.40;99.90
9389;DHT22;4734;52.778;6.798;2023-10-13T01:40:35;16.40;99.90
9389;DHT22;4734;52.778;6.798;2023-10-13T01:43:21;16.40;99.90
9389;DHT22;4734;52.778;6.798;2023-10-13T01:46:07;16.40;99.90
9389;DHT22;4734;52.778;6.798;2023-10-13T01:48:53;16.40;99.90
9389;DHT22;4734;52.778;6.798;2023-10-13T01:51:41;16.50;99.90
9389;DHT22;4734;52.778;6.798;2023-10-13T01:54:27;16.50;99.90
9389;DHT22;4734;52.778;6.798;2023-10-13T01:57:14;16.50;99.90
9389;DHT22;4734;52.778;6.798;2023-10-13T02:00:01;16.50;99.90
9389;DHT22;4734;52.778;6.798;2023-10-13T02:02:55;16.50;99.90
9389;DHT22;4734;52.778;6.798;2023-10-13T02:05:46;16.50;99.90
9389;DHT22;4734;52.778;6.798;2023-10-13T02:08:31;16.50;99.90
9389;DHT22;4734;52.778;6.798;2023-10-13T02:11:17;16.50;99.90
9389;DHT22;4734;52.778;6.798;2023-10-13T02:14:04;16.60;99.90
9389;DHT22;4734;52.778;6.798;2023-10-13T02:16:50;16.60;99.90
9389;DHT22;4734;52.778;6.798;2023-10-13T02:19:39;16.50;99.90
9389;DHT22;4734;52.778;6.798;2023-10-13T02:22:27;16.60;99.90
9389;DHT22;4734;52.778;6.798;2023-10-13T02:25:14;16.60;99.90
9389;DHT22;4734;52.778;6.798;2023-10-13T02:28:01;16.60;99.90
9389;DHT22;4734;52.778;6.798;2023-10-13T02:30:48;16.60;99.90
9389;DHT22;4734;52.778;6.798;2023-10-13T02:33:34;16.60;99.90
9389;DHT22;4734;52.778;6.798;2023-10-13T02:36:28;16.60;99.90
9389;DHT22;4734;52.778;6.798;2023-10-13T02:39:20;16.60;99.90
9389;DHT22;4734;52.778;6.798;2023-10-13T02:42:10;16.60;99.90
9389;DHT22;4734;52.778;6.798;2023-10-13T02:45:09;16.60;99.90
9389;DHT22;4734;52.778;6.798;2023-10-13T02:47:57;16.60;99.90
9389;DHT22;4734;52.778;6.798;2023-10-13T02:50:56;16.60;99.90
9389;DHT22;4734;52.778;6.798;2023-10-13T02:53:46;16.60;99.90
9389;DHT22;4734;52.778;6.798;2023-10-13T02:56:33;16.60;99.90
9389;DHT22;4734;52.778;6.798;2023-10-13T02:59:20;16.60;99.90
9389;DHT22;4734;52.778;6.798;2023-10-13T03:02:18;16.60;99.90
9389;DHT22;4734;52.778;6.798;2023-10-13T03:05:10;16.60;99.90
9389;DHT22;4734;52.778;6.798;2023-10-13T03:07:57;16.70;99.90
9389;DHT22;4734;52.778;6.798;2023-10-13T03:10:48;16.70;99.90
9389;DHT22;4734;52.778;6.798;2023-10-13T03:13:34;16.70;99.90
9389;DHT22;4734;52.778;6.798;2023-10-13T03:16:20;16.70;99.90
9389;DHT22;4734;52.778;6.798;2023-10-13T03:19:05;16.70;99.90
9389;DHT22;4734;52.778;6.798;2023-10-13T03:21:55;16.70;99.90
9389;DHT22;4734;52.778;6.798;2023-10-13T03:24:42;16.70;99.90
9389;DHT22;4734;52.778;6.798;2023-10-13T03:27:29;16.70;99.90
9389;DHT22;4734;52.778;6.798;2023-10-13T03:30:32;16.70;99.90
9389;DHT22;4734;52.778;6.798;2023-10-13T03:33:22;16.70;99.90
9389;DHT22;4734;52.778;6.798;2023-10-13T03:36:10;16.70;99.90
9389;DHT22;4734;52.778;6.798;2023-10-13T03:39:17;16.70;99.90
9389;DHT22;4734;52.778;6.798;2023-10-13T03:42:02;16.70;99.90
9389;DHT22;4734;52.778;6.798;2023-10-13T03:44:49;16.70;99.90
9389;DHT22;4734;52.778;6.798;2023-10-13T03:47:38;16.70;99.90
9389;DHT22;4734;52.778;6.798;2023-10-13T03:50:26;16.70;99.90
9389;DHT22;4734;52.778;6.798;2023-10-13T03:53:15;16.70;99.90
9389;DHT22;4734;52.778;6.798;2023-10-13T03:56:04;16.70;99.90
9389;DHT22;4734;52.778;6.798;2023-10-13T03:59:00;16.70;99.90
9389;DHT22;4734;52.778;6.798;2023-10-13T04:01:50;16.70;99.90
9389;DHT22;4734;52.778;6.798;2023-10-13T04:04:46;16.70;99.90
9389;DHT22;4734;52.778;6.798;2023-10-13T04:07:34;16.70;99.90
9389;DHT22;4734;52.778;6.798;2023-10-13T04:10:44;16.70;99.90
9389;DHT22;4734;52.778;6.798;2023-10-13T04:13:49;16.70;99.90
9389;DHT22;4734;52.778;6.798;2023-10-13T04:16:52;16.70;99.90
9389;DHT22;4734;52.778;6.798;2023-10-13T04:19:38;16.70;99.90
9389;DHT22;4734;52.778;6.798;2023-10-13T04:22:44;16.70;99.90
9389;DHT22;4734;52.778;6.798;2023-10-13T04:25:47;16.70;99.90
9389;DHT22;4734;52.778;6.798;2023-10-13T04:29:06;16.70;99.90
9389;DHT22;4734;52.778;6.798;2023-10-13T04:31:55;16.70;99.90
9389;DHT22;4734;52.778;6.798;2023-10-13T04:34:44;16.70;99.90
9389;DHT22;4734;52.778;6.798;2023-10-13T04:37:30;16.70;99.90
9389;DHT22;4734;52.778;6.798;2023-10-13T04:40:18;16.70;99.90
9389;DHT22;4734;52.778;6.798;2023-10-13T04:43:03;16.70;99.90
9389;DHT22;4734;52.778;6.798;2023-10-13T04:46:10;16.70;99.90
9389;DHT22;4734;52.778;6.798;2023-10-13T04:49:09;16.70;99.90
9389;DHT22;4734;52.778;6.798;2023-10-13T04:52:11;16.70;99.90
9389;DHT22;4734;52.778;6.798;2023-10-13T04:54:57;16.70;99.90
9389;DHT22;4734;52.778;6.798;2023-10-13T04:57:53;16.70;99.90
9389;DHT22;4734;52.778;6.798;2023-10-13T05:00:54;16.70;99.90
9389;DHT22;4734;52.778;6.798;2023-10-13T05:04:23;16.70;99.90
9389;DHT22;4734;52.778;6.798;2023-10-13T05:07:22;16.70;99.90
9389;DHT22;4734;52.778;6.798;2023-10-13T05:10:25;16.70;99.90
9389;DHT22;4734;52.778;6.798;2023-10-13T05:13:28;16.70;99.90
9389;DHT22;4734;52.778;6.798;2023-10-13T05:16:31;16.70;99.90
9389;DHT22;4734;52.778;6.798;2023-10-13T05:19:36;16.70;99.90
9389;DHT22;4734;52.778;6.798;2023-10-13T05:22:39;16.70;99.90
9389;DHT22;4734;52.778;6.798;2023-10-13T05:25:42;16.70;99.90
9389;DHT22;4734;52.778;6.798;2023-10-13T05:28:45;16.70;99.90
9389;DHT22;4734;52.778;6.798;2023-10-13T05:31:48;16.70;99.90
9389;DHT22;4734;52.778;6.798;2023-10-13T05:34:52;16.70;99.90
9389;DHT22;4734;52.778;6.798;2023-10-13T05:37:55;16.70;99.90
9389;DHT22;4734;52.778;6.798;2023-10-13T05:41:00;16.70;99.90
9389;DHT22;4734;52.778;6.798;2023-10-13T05:44:04;16.70;99.90
9389;DHT22;4734;52.778;6.798;2023-10-13T05:47:07;16.70;99.90
9389;DHT22;4734;52.778;6.798;2023-10-13T05:50:30;16.70;99.90
9389;DHT22;4734;52.778;6.798;2023-10-13T05:53:29;16.70;99.90
9389;DHT22;4734;52.778;6.798;2023-10-13T05:56:32;16.70;99.90
9389;DHT22;4734;52.778;6.798;2023-10-13T05:59:36;16.70;99.90
9389;DHT22;4734;52.778;6.798;2023-10-13T06:02:39;16.70;99.90
9389;DHT22;4734;52.778;6.798;2023-10-13T06:05:43;16.70;99.90
9389;DHT22;4734;52.778;6.798;2023-10-13T06:08:48;16.70;99.90
9389;DHT22;4734;52.778;6.798;2023-10-13T06:11:51;16.70;99.90
9389;DHT22;4734;52.778;6.798;2023-10-13T06:14:55;16.70;99.90
9389;DHT22;4734;52.778;6.798;2023-10-13T06:17:58;16.70;99.90
9389;DHT22;4734;52.778;6.798;2023-10-13T06:21:02;16.70;99.90
9389;DHT22;4734;52.778;6.798;2023-10-13T06:24:17;16.70;99.90
9389;DHT22;4734;52.778;6.798;2023-10-13T06:27:25;16.70;99.90
9389;DHT22;4734;52.778;6.798;2023-10-13T06:30:28;16.70;99.90
9389;DHT22;4734;52.778;6.798;2023-10-13T06:33:14;16.70;99.90
9389;DHT22;4734;52.778;6.798;2023-10-13T06:36:03;16.70;99.90
9389;DHT22;4734;52.778;6.798;2023-10-13T06:38:53;16.70;99.90
9389;DHT22;4734;52.778;6.798;2023-10-13T06:42:00;16.70;99.90
9389;DHT22;4734;52.778;6.798;2023-10-13T06:44:47;16.70;99.90
9389;DHT22;4734;52.778;6.798;2023-10-13T06:47:32;16.70;99.90
9389;DHT22;4734;52.778;6.798;2023-10-13T06:50:18;16.70;99.90
9389;DHT22;4734;52.778;6.798;2023-10-13T06:53:09;16.70;99.90
9389;DHT22;4734;52.778;6.798;2023-10-13T06:55:56;16.70;99.90
9389;DHT22;4734;52.778;6.798;2023-10-13T06:58:43;16.70;99.90
9389;DHT22;4734;52.778;6.798;2023-10-13T07:01:30;16.70;99.90
9389;DHT22;4734;52.778;6.798;2023-10-13T07:04:24;16.70;99.90
9389;DHT22;4734;52.778;6.798;2023-10-13T07:07:11;16.70;99.90
9389;DHT22;4734;52.778;6.798;2023-10-13T07:10:00;16.70;99.90
9389;DHT22;4734;52.778;6.798;2023-10-13T07:12:45;16.80;99.90
9389;DHT22;4734;52.778;6.798;2023-10-13T07:15:34;16.80;99.90
9389;DHT22;4734;52.778;6.798;2023-10-13T07:18:28;16.80;99.90
9389;DHT22;4734;52.778;6.798;2023-10-13T07:21:20;16.80;99.90
9389;DHT22;4734;52.778;6.798;2023-10-13T07:24:15;16.80;99.90
9389;DHT22;4734;52.778;6.798;2023-10-13T07:27:02;16.80;99.90
9389;DHT22;4734;52.778;6.798;2023-10-13T07:29:50;16.90;99.90
9389;DHT22;4734;52.778;6.798;2023-10-13T07:32:40;16.90;99.90
9389;DHT22;4734;52.778;6.798;2023-10-13T07:35:31;16.90;99.90
9389;DHT22;4734;52.778;6.798;2023-10-13T07:38:20;16.90;99.90
9389;DHT22;4734;52.778;6.798;2023-10-13T07:41:18;16.90;99.90
9389;DHT22;4734;52.778;6.798;2023-10-13T07:44:15;16.90;99.90
9389;DHT22;4734;52.778;6.798;2023-10-13T07:47:06;16.90;99.90
9389;DHT22;4734;52.778;6.798;2023-10-13T07:49:55;16.90;99.90
9389;DHT22;4734;52.778;6.798;2023-10-13T07:52:44;16.90;99.90
9389;DHT22;4734;52.778;6.798;2023-10-13T07:55:44;16.90;99.90
9389;DHT22;4734;52.778;6.798;2023-10-13T07:58:30;17.00;99.90
9389;DHT22;4734;52.778;6.798;2023-10-13T08:01:18;17.00;99.90
9389;DHT22;4734;52.778;6.798;2023-10-13T08:04:04;17.00;99.90
9389;DHT22;4734;52.778;6.798;2023-10-13T08:06:55;17.00;99.90
9389;DHT22;4734;52.778;6.798;2023-10-13T08:09:55;17.00;99.90
9389;DHT22;4734;52.778;6.798;2023-10-13T08:12:43;17.00;99.90
9389;DHT22;4734;52.778;6.798;2023-10-13T08:15:29;17.00;99.90
9389;DHT22;4734;52.778;6.798;2023-10-13T08:18:19;17.10;99.90
9389;DHT22;4734;52.778;6.798;2023-10-13T08:21:14;17.10;99.90
9389;DHT22;4734;52.778;6.798;2023-10-13T08:24:04;17.10;99.90
9389;DHT22;4734;52.778;6.798;2023-10-13T08:26:51;17.10;99.90
9389;DHT22;4734;52.778;6.798;2023-10-13T08:30:05;17.10;99.90
9389;DHT22;4734;52.778;6.798;2023-10-13T08:33:09;17.10;99.90
9389;DHT22;4734;52.778;6.798;2023-10-13T08:36:02;17.10;99.90
9389;DHT22;4734;52.778;6.798;2023-10-13T08:39:01;17.10;99.90
9389;DHT22;4734;52.778;6.798;2023-10-13T08:42:08;17.10;99.90
9389;DHT22;4734;52.778;6.798;2023-10-13T08:44:56;17.20;99.90
9389;DHT22;4734;52.778;6.798;2023-10-13T08:47:48;17.20;99.90
9389;DHT22;4734;52.778;6.798;2023-10-13T08:50:43;17.20;99.90
9389;DHT22;4734;52.778;6.798;2023-10-13T08:53:37;17.20;99.90
9389;DHT22;4734;52.778;6.798;2023-10-13T08:56:36;17.20;99.90
9389;DHT22;4734;52.778;6.798;2023-10-13T08:59:31;17.30;99.90
9389;DHT22;4734;52.778;6.798;2023-10-13T09:02:23;17.30;99.90
9389;DHT22;4734;52.778;6.798;2023-10-13T09:05:24;17.30;99.90
9389;DHT22;4734;52.778;6.798;2023-10-13T09:08:28;17.30;99.90
9389;DHT22;4734;52.778;6.798;2023-10-13T09:11:19;17.40;99.90
9389;DHT22;4734;52.778;6.798;2023-10-13T09:14:13;17.40;99.90
9389;DHT22;4734;52.778;6.798;2023-10-13T09:17:17;17.50;99.90
9389;DHT22;4734;52.778;6.798;2023-10-13T09:20:28;17.50;99.90
9389;DHT22;4734;52.778;6.798;2023-10-13T09:23:28;17.50;99.90
9389;DHT22;4734;52.778;6.798;2023-10-13T09:26:33;17.60;99.90
9389;DHT22;4734;52.778;6.798;2023-10-13T09:29:20;17.60;99.90
9389;DHT22;4734;52.778;6.798;2023-10-13T09:32:06;17.60;99.90
9389;DHT22;4734;52.778;6.798;2023-10-13T09:35:00;17.80;99.90
9389;DHT22;4734;52.778;6.798;2023-10-13T09:37:46;17.80;99.90
9389;DHT22;4734;52.778;6.798;2023-10-13T09:40:33;17.80;99.90
9389;DHT22;4734;52.778;6.798;2023-10-13T09:43:18;17.90;99.90
9389;DHT22;4734;52.778;6.798;2023-10-13T09:46:06;17.90;99.90
9389;DHT22;4734;52.778;6.798;2023-10-13T09:49:08;17.90;99.90
9389;DHT22;4734;52.778;6.798;2023-10-13T09:52:01;17.90;99.90
9389;DHT22;4734;52.778;6.798;2023-10-13T09:55:04;18.00;99.90
9389;DHT22;4734;52.778;6.798;2023-10-13T09:58:00;18.00;99.90
9389;DHT22;4734;52.778;6.798;2023-10-13T10:00:57;18.00;99.90
9389;DHT22;4734;52.778;6.798;2023-10-13T10:03:54;18.00;99.90
9389;DHT22;4734;52.778;6.798;2023-10-13T10:06:52;18.00;99.90
9389;DHT22;4734;52.778;6.798;2023-10-13T10:09:38;18.10;99.90
9389;DHT22;4734;52.778;6.798;2023-10-13T10:12:30;18.10;99.90
9389;DHT22;4734;52.778;6.798;2023-10-13T10:15:26;18.10;99.90
9389;DHT22;4734;52.778;6.798;2023-10-13T10:18:35;18.20;99.90
9389;DHT22;4734;52.778;6.798;2023-10-13T10:21:33;18.20;99.90
9389;DHT22;4734;52.778;6.798;2023-10-13T10:24:22;18.20;99.90
9389;DHT22;4734;52.778;6.798;2023-10-13T10:27:26;18.20;99.90
9389;DHT22;4734;52.778;6.798;2023-10-13T10:30:33;18.30;99.90
9389;DHT22;4734;52.778;6.798;2023-10-13T10:33:30;18.30;99.90
9389;DHT22;4734;52.778;6.798;2023-10-13T10:36:28;18.30;99.90
9389;DHT22;4734;52.778;6.798;2023-10-13T10:39:16;18.30;99.90
9389;DHT22;4734;52.778;6.798;2023-10-13T10:42:18;18.30;99.90
9389;DHT22;4734;52.778;6.798;2023-10-13T10:45:09;18.40;99.90
9389;DHT22;4734;52.778;6.798;2023-10-13T10:47:57;18.40;99.90
9389;DHT22;4734;52.778;6.798;2023-10-13T10:50:43;18.50;99.90
9389;DHT22;4734;52.778;6.798;2023-10-13T10:53:29;18.50;99.90
9389;DHT22;4734;52.778;6.798;2023-10-13T10:56:22;18.60;99.90
9389;DHT22;4734;52.778;6.798;2023-10-13T10:59:09;18.60;99.90
9389;DHT22;4734;52.778;6.798;2023-10-13T11:02:02;18.60;99.90
9389;DHT22;4734;52.778;6.798;2023-10-13T11:04:52;18.60;99.90
9389;DHT22;4734;52.778;6.798;2023-10-13T11:07:45;18.60;99.90
9389;DHT22;4734;52.778;6.798;2023-10-13T11:10:34;18.70;99.90
9389;DHT22;4734;52.778;6.798;2023-10-13T11:13:22;18.70;99.90
9389;DHT22;4734;52.778;6.798;2023-10-13T11:16:08;18.70;99.90
9389;DHT22;4734;52.778;6.798;2023-10-13T11:19:04;18.80;99.90
9389;DHT22;4734;52.778;6.798;2023-10-13T11:21:51;18.70;99.90
9389;DHT22;4734;52.778;6.798;2023-10-13T11:24:40;18.70;99.90
9389;DHT22;4734;52.778;6.798;2023-10-13T11:27:30;18.80;99.90
9389;DHT22;4734;52.778;6.798;2023-10-13T11:30:40;18.80;99.90
9389;DHT22;4734;52.778;6.798;2023-10-13T11:33:29;18.80;99.90
9389;DHT22;4734;52.778;6.798;2023-10-13T11:36:15;18.80;99.90
9389;DHT22;4734;52.778;6.798;2023-10-13T11:39:08;18.90;99.90
9389;DHT22;4734;52.778;6.798;2023-10-13T11:41:53;18.80;99.90
9389;DHT22;4734;52.778;6.798;2023-10-13T11:45:04;18.90;99.90
9389;DHT22;4734;52.778;6.798;2023-10-13T11:48:07;18.90;99.90
9389;DHT22;4734;52.778;6.798;2023-10-13T11:50:59;19.00;99.90
9389;DHT22;4734;52.778;6.798;2023-10-13T11:54:02;19.00;99.90
9389;DHT22;4734;52.778;6.798;2023-10-13T11:56:53;19.00;99.90
9389;DHT22;4734;52.778;6.798;2023-10-13T11:59:42;19.00;99.90
9389;DHT22;4734;52.778;6.798;2023-10-13T12:02:37;19.00;99.90
9389;DHT22;4734;52.778;6.798;2023-10-13T12:05:39;19.10;99.90
9389;DHT22;4734;52.778;6.798;2023-10-13T12:08:50;19.10;99.90
9389;DHT22;4734;52.778;6.798;2023-10-13T12:11:36;19.10;99.90
9389;DHT22;4734;52.778;6.798;2023-10-13T12:14:25;19.10;99.90
9389;DHT22;4734;52.778;6.798;2023-10-13T12:17:13;19.10;99.90
9389;DHT22;4734;52.778;6.798;2023-10-13T12:20:03;19.20;99.90
9389;DHT22;4734;52.778;6.798;2023-10-13T12:22:50;19.20;99.90
9389;DHT22;4734;52.778;6.798;2023-10-13T12:25:40;19.20;99.90
9389;DHT22;4734;52.778;6.798;2023-10-13T12:28:41;19.20;99.90
9389;DHT22;4734;52.778;6.798;2023-10-13T12:31:36;19.20;99.90
9389;DHT22;4734;52.778;6.798;2023-10-13T12:34:23;19.20;99.90
9389;DHT22;4734;52.778;6.798;2023-10-13T12:37:30;19.20;99.90
9389;DHT22;4734;52.778;6.798;2023-10-13T12:40:33;19.20;99.90
9389;DHT22;4734;52.778;6.798;2023-10-13T12:43:36;19.20;99.90
9389;DHT22;4734;52.778;6.798;2023-10-13T12:46:52;19.20;99.90
9389;DHT22;4734;52.778;6.798;2023-10-13T12:49:56;19.20;99.90
9389;DHT22;4734;52.778;6.798;2023-10-13T12:52:51;19.30;99.90
9389;DHT22;4734;52.778;6.798;2023-10-13T12:55:40;19.30;99.90
9389;DHT22;4734;52.778;6.798;2023-10-13T12:58:25;19.30;99.90
9389;DHT22;4734;52.778;6.798;2023-10-13T13:01:11;19.30;99.90
9389;DHT22;4734;52.778;6.798;2023-10-13T13:03:59;19.30;99.90
9389;DHT22;4734;52.778;6.798;2023-10-13T13:06:48;19.30;99.90
9389;DHT22;4734;52.778;6.798;2023-10-13T13:09:34;19.30;99.90
9389;DHT22;4734;52.778;6.798;2023-10-13T13:12:23;19.30;99.90
9389;DHT22;4734;52.778;6.798;2023-10-13T13:15:10;19.40;99.90
9389;DHT22;4734;52.778;6.798;2023-10-13T13:17:55;19.40;99.90
9389;DHT22;4734;52.778;6.798;2023-10-13T13:20:43;19.40;99.90
9389;DHT22;4734;52.778;6.798;2023-10-13T13:23:37;19.40;99.90
9389;DHT22;4734;52.778;6.798;2023-10-13T13:26:24;19.40;99.90
9389;DHT22;4734;52.778;6.798;2023-10-13T13:29:09;19.40;99.90
9389;DHT22;4734;52.778;6.798;2023-10-13T13:31:55;19.40;99.90
9389;DHT22;4734;52.778;6.798;2023-10-13T13:34:40;19.40;99.90
9389;DHT22;4734;52.778;6.798;2023-10-13T13:37:27;19.40;99.90
9389;DHT22;4734;52.778;6.798;2023-10-13T13:40:13;19.40;99.90
9389;DHT22;4734;52.778;6.798;2023-10-13T13:42:59;19.50;99.90
9389;DHT22;4734;52.778;6.798;2023-10-13T13:45:45;19.50;99.90
9389;DHT22;4734;52.778;6.798;2023-10-13T13:48:30;19.50;99.90
9389;DHT22;4734;52.778;6.798;2023-10-13T13:51:18;19.50;99.90
9389;DHT22;4734;52.778;6.798;2023-10-13T13:54:11;19.50;99.90
9389;DHT22;4734;52.778;6.798;2023-10-13T13:56:57;19.50;99.90
9389;DHT22;4734;52.778;6.798;2023-10-13T13:59:42;19.50;99.90
9389;DHT22;4734;52.778;6.798;2023-10-13T14:02:33;19.40;99.90
9389;DHT22;4734;52.778;6.798;2023-10-13T14:05:19;19.40;99.90
9389;DHT22;4734;52.778;6.798;2023-10-13T14:08:05;19.40;99.90
9389;DHT22;4734;52.778;6.798;2023-10-13T14:10:57;19.40;99.90
9389;DHT22;4734;52.778;6.798;2023-10-13T14:13:56;19.40;99.90
9389;DHT22;4734;52.778;6.798;2023-10-13T14:16:42;19.30;99.90
9389;DHT22;4734;52.778;6.798;2023-10-13T14:19:33;19.30;99.90
9389;DHT22;4734;52.778;6.798;2023-10-13T14:22:25;19.30;99.90
9389;DHT22;4734;52.778;6.798;2023-10-13T14:25:11;19.30;99.90
9389;DHT22;4734;52.778;6.798;2023-10-13T14:27:59;19.20;99.90
9389;DHT22;4734;52.778;6.798;2023-10-13T14:30:45;19.20;99.90
9389;DHT22;4734;52.778;6.798;2023-10-13T14:33:30;19.20;99.90
9389;DHT22;4734;52.778;6.798;2023-10-13T14:36:16;19.20;99.90
9389;DHT22;4734;52.778;6.798;2023-10-13T14:39:05;19.20;99.90
9389;DHT22;4734;52.778;6.798;2023-10-13T14:41:53;19.20;99.90
9389;DHT22;4734;52.778;6.798;2023-10-13T14:44:39;19.10;99.90
9389;DHT22;4734;52.778;6.798;2023-10-13T14:47:25;19.10;99.90
9389;DHT22;4734;52.778;6.798;2023-10-13T14:50:12;19.10;99.90
9389;DHT22;4734;52.778;6.798;2023-10-13T14:53:03;19.10;99.90
9389;DHT22;4734;52.778;6.798;2023-10-13T14:55:49;19.10;99.90
9389;DHT22;4734;52.778;6.798;2023-10-13T14:58:35;19.10;99.90
9389;DHT22;4734;52.778;6.798;2023-10-13T15:01:27;19.00;99.90
9389;DHT22;4734;52.778;6.798;2023-10-13T15:04:13;19.00;99.90
9389;DHT22;4734;52.778;6.798;2023-10-13T15:06:58;19.00;99.90
9389;DHT22;4734;52.778;6.798;2023-10-13T15:09:45;19.00;99.90
9389;DHT22;4734;52.778;6.798;2023-10-13T15:12:31;19.00;99.90
9389;DHT22;4734;52.778;6.798;2023-10-13T15:15:16;18.90;99.90
9389;DHT22;4734;52.778;6.798;2023-10-13T15:18:04;18.90;99.90
9389;DHT22;4734;52.778;6.798;2023-10-13T15:20:50;18.90;99.90
9389;DHT22;4734;52.778;6.798;2023-10-13T15:23:36;18.90;99.90
9389;DHT22;4734;52.778;6.798;2023-10-13T15:26:26;18.90;99.90
9389;DHT22;4734;52.778;6.798;2023-10-13T15:29:11;18.80;99.90
9389;DHT22;4734;52.778;6.798;2023-10-13T15:31:59;18.80;99.90
9389;DHT22;4734;52.778;6.798;2023-10-13T15:35:11;18.80;99.90
9389;DHT22;4734;52.778;6.798;2023-10-13T15:37:57;18.80;99.90
9389;DHT22;4734;52.778;6.798;2023-10-13T15:40:43;18.70;99.90
9389;DHT22;4734;52.778;6.798;2023-10-13T15:43:29;18.70;99.90
9389;DHT22;4734;52.778;6.798;2023-10-13T15:46:16;18.70;99.90
9389;DHT22;4734;52.778;6.798;2023-10-13T15:49:02;18.70;99.90
9389;DHT22;4734;52.778;6.798;2023-10-13T15:51:51;18.60;99.90
9389;DHT22;4734;52.778;6.798;2023-10-13T15:54:37;18.60;99.90
9389;DHT22;4734;52.778;6.798;2023-10-13T15:57:27;18.60;99.90
9389;DHT22;4734;52.778;6.798;2023-10-13T16:00:13;18.60;99.90
9389;DHT22;4734;52.778;6.798;2023-10-13T16:03:08;18.60;99.90
9389;DHT22;4734;52.778;6.798;2023-10-13T16:05:55;18.50;99.90
9389;DHT22;4734;52.778;6.798;2023-10-13T16:08:43;18.50;99.90
9389;DHT22;4734;52.778;6.798;2023-10-13T16:11:29;18.50;99.90
9389;DHT22;4734;52.778;6.798;2023-10-13T16:14:14;18.50;99.90
9389;DHT22;4734;52.778;6.798;2023-10-13T16:17:01;18.50;99.90
9389;DHT22;4734;52.778;6.798;2023-10-13T16:19:48;18.40;99.90
9389;DHT22;4734;52.778;6.798;2023-10-13T16:22:34;18.50;99.90
9389;DHT22;4734;52.778;6.798;2023-10-13T16:25:21;18.50;99.90
9389;DHT22;4734;52.778;6.798;2023-10-13T16:28:08;18.40;99.90
9389;DHT22;4734;52.778;6.798;2023-10-13T16:30:56;18.50;99.90
9389;DHT22;4734;52.778;6.798;2023-10-13T16:33:41;18.40;99.90
9389;DHT22;4734;52.778;6.798;2023-10-13T16:36:27;18.40;99.90
9389;DHT22;4734;52.778;6.798;2023-10-13T16:39:15;18.40;99.90
9389;DHT22;4734;52.778;6.798;2023-10-13T16:42:02;18.40;99.90
9389;DHT22;4734;52.778;6.798;2023-10-13T16:44:51;18.30;99.90
9389;DHT22;4734;52.778;6.798;2023-10-13T16:47:37;18.30;99.90
9389;DHT22;4734;52.778;6.798;2023-10-13T16:50:26;18.30;99.90
9389;DHT22;4734;52.778;6.798;2023-10-13T16:53:13;18.30;99.90
9389;DHT22;4734;52.778;6.798;2023-10-13T16:55:58;18.30;99.90
9389;DHT22;4734;52.778;6.798;2023-10-13T16:58:47;18.30;99.90
9389;DHT22;4734;52.778;6.798;2023-10-13T17:01:33;18.30;99.90
9389;DHT22;4734;52.778;6.798;2023-10-13T17:04:18;18.30;99.90
9389;DHT22;4734;52.778;6.798;2023-10-13T17:07:05;18.30;99.90
9389;DHT22;4734;52.778;6.798;2023-10-13T17:09:51;18.30;99.90
9389;DHT22;4734;52.778;6.798;2023-10-13T17:12:40;18.20;99.90
9389;DHT22;4734;52.778;6.798;2023-10-13T17:15:30;18.30;99.90
9389;DHT22;4734;52.778;6.798;2023-10-13T17:18:17;18.20;99.90
9389;DHT22;4734;52.778;6.798;2023-10-13T17:21:03;18.30;99.90
9389;DHT22;4734;52.778;6.798;2023-10-13T17:23:52;18.30;99.90
9389;DHT22;4734;52.778;6.798;2023-10-13T17:26:37;18.20;99.90
9389;DHT22;4734;52.778;6.798;2023-10-13T17:29:23;18.30;99.90
9389;DHT22;4734;52.778;6.798;2023-10-13T17:32:11;18.20;99.90
9389;DHT22;4734;52.778;6.798;2023-10-13T17:34:57;18.20;99.90
9389;DHT22;4734;52.778;6.798;2023-10-13T17:37:43;18.20;99.90
9389;DHT22;4734;52.778;6.798;2023-10-13T17:40:29;18.30;99.90
9389;DHT22;4734;52.778;6.798;2023-10-13T17:43:14;18.30;99.90
9389;DHT22;4734;52.778;6.798;2023-10-13T17:46:04;18.20;99.90
9389;DHT22;4734;52.778;6.798;2023-10-13T17:48:51;18.30;99.90
9389;DHT22;4734;52.778;6.798;2023-10-13T17:51:39;18.30;99.90
9389;DHT22;4734;52.778;6.798;2023-10-13T17:54:27;18.20;99.90
9389;DHT22;4734;52.778;6.798;2023-10-13T17:57:14;18.20;99.90
9389;DHT22;4734;52.778;6.798;2023-10-13T18:00:01;18.20;99.90
9389;DHT22;4734;52.778;6.798;2023-10-13T18:02:54;18.20;99.90
9389;DHT22;4734;52.778;6.798;2023-10-13T18:05:41;18.10;99.90
9389;DHT22;4734;52.778;6.798;2023-10-13T18:08:26;18.20;99.90
9389;DHT22;4734;52.778;6.798;2023-10-13T18:11:12;18.10;99.90
9389;DHT22;4734;52.778;6.798;2023-10-13T18:13:58;18.10;99.90
9389;DHT22;4734;52.778;6.798;2023-10-13T18:16:44;18.10;99.90
9389;DHT22;4734;52.778;6.798;2023-10-13T18:19:30;18.10;99.90
9389;DHT22;4734;52.778;6.798;2023-10-13T18:22:19;18.10;99.90
9389;DHT22;4734;52.778;6.798;2023-10-13T18:25:06;18.10;99.90
9389;DHT22;4734;52.778;6.798;2023-10-13T18:27:56;18.10;99.90
9389;DHT22;4734;52.778;6.798;2023-10-13T18:30:44;18.10;99.90
9389;DHT22;4734;52.778;6.798;2023-10-13T18:33:29;18.10;99.90
9389;DHT22;4734;52.778;6.798;2023-10-13T18:36:18;18.10;99.90
9389;DHT22;4734;52.778;6.798;2023-10-13T18:39:05;18.10;99.90
9389;DHT22;4734;52.778;6.798;2023-10-13T18:42:02;18.00;99.90